createdAt,value
2018-04-24T00:00:24.796Z,8.83
2018-04-24T00:02:51.488Z,5.07
2018-04-24T00:05:18.218Z,3.77
2018-04-24T00:07:44.908Z,3.60
2018-04-24T00:10:11.573Z,7.53
2018-04-24T00:12:38.253Z,5.43
2018-04-24T00:15:04.936Z,8.10
2018-04-24T00:17:31.600Z,3.93
2018-04-24T00:19:58.298Z,5.60
2018-04-24T00:22:25.016Z,4.83
2018-04-24T00:24:51.812Z,4.43
2018-04-24T00:27:18.475Z,5.30
2018-04-24T00:29:45.169Z,8.37
2018-04-24T00:32:11.848Z,9.60
2018-04-24T00:34:38.523Z,8.30
2018-04-24T00:37:05.246Z,4.53
2018-04-24T00:39:31.961Z,4.40
2018-04-24T00:41:58.907Z,5.70
2018-04-24T00:44:26.315Z,8.40
2018-04-24T00:46:53.003Z,8.73
2018-04-24T00:49:19.691Z,6.33
2018-04-24T00:51:46.468Z,5.07
2018-04-24T00:54:13.152Z,3.87
2018-04-24T00:56:39.951Z,11.23
2018-04-24T00:59:06.629Z,8.03
2018-04-24T01:01:33.332Z,4.73
2018-04-24T01:04:00.003Z,5.47
2018-04-24T01:06:26.682Z,5.70
2018-04-24T01:08:53.372Z,7.30
2018-04-24T01:11:20.060Z,2.87
2018-04-24T01:13:46.760Z,5.23
2018-04-24T01:16:13.430Z,5.97
2018-04-24T01:18:40.122Z,2.17
2018-04-24T01:21:06.791Z,6.70
2018-04-24T01:23:33.487Z,7.60
2018-04-24T01:26:00.187Z,5.07
2018-04-24T01:28:26.868Z,2.97
2018-04-24T01:30:53.576Z,2.37
2018-04-24T01:33:20.252Z,5.30
2018-04-24T01:35:46.935Z,3.03
2018-04-24T01:38:13.640Z,2.27
2018-04-24T01:40:40.312Z,2.63
2018-04-24T01:43:07.029Z,6.97
2018-04-24T01:45:33.712Z,3.73
2018-04-24T01:48:00.419Z,7.50
2018-04-24T01:50:27.087Z,2.20
2018-04-24T01:52:53.831Z,2.90
2018-04-24T01:55:20.564Z,3.97
2018-04-24T01:57:47.452Z,2.10
2018-04-24T02:00:14.219Z,5.77
2018-04-24T02:02:40.907Z,4.97
2018-04-24T02:05:07.587Z,6.10
2018-04-24T02:07:34.279Z,10.70
2018-04-24T02:10:00.952Z,5.00
2018-04-24T02:12:27.661Z,3.30
2018-04-24T02:14:54.343Z,3.50
2018-04-24T02:17:21.049Z,4.27
2018-04-24T02:19:47.732Z,3.40
2018-04-24T02:22:14.400Z,4.10
2018-04-24T02:24:41.088Z,5.80
2018-04-24T02:27:07.779Z,6.70
2018-04-24T02:29:34.487Z,10.43
2018-04-24T02:32:01.168Z,3.80
2018-04-24T02:34:27.864Z,6.07
2018-04-24T02:36:54.563Z,3.43
2018-04-24T02:39:21.264Z,3.17
2018-04-24T02:41:48.067Z,9.03
2018-04-24T02:44:14.731Z,5.97
2018-04-24T02:46:41.476Z,6.40
2018-04-24T02:49:08.149Z,6.50
2018-04-24T02:51:34.852Z,2.83
2018-04-24T02:54:01.516Z,8.40
2018-04-24T02:56:28.212Z,6.60
2018-04-24T02:58:54.899Z,6.03
2018-04-24T03:01:21.579Z,4.00
2018-04-24T03:03:48.275Z,4.70
2018-04-24T03:06:15.091Z,5.17
2018-04-24T03:08:41.821Z,6.40
2018-04-24T03:11:08.504Z,7.10
2018-04-24T03:13:35.195Z,3.80
2018-04-24T03:16:01.901Z,3.50
2018-04-24T03:18:28.602Z,5.63
2018-04-24T03:20:55.272Z,4.93
2018-04-24T03:23:21.981Z,4.27
2018-04-24T03:25:48.660Z,7.03
2018-04-24T03:28:15.351Z,5.27
2018-04-24T03:30:42.064Z,4.53
2018-04-24T03:33:08.759Z,4.67
2018-04-24T03:35:35.461Z,5.47
2018-04-24T03:38:02.133Z,9.27
2018-04-24T03:40:28.831Z,5.70
2018-04-24T03:42:55.587Z,6.13
2018-04-24T03:45:22.290Z,6.30
2018-04-24T03:47:48.962Z,9.57
2018-04-24T03:50:15.660Z,8.87
2018-04-24T03:52:42.360Z,4.70
2018-04-24T03:55:09.027Z,9.43
2018-04-24T03:57:35.723Z,11.33
2018-04-24T04:00:02.401Z,8.63
2018-04-24T04:02:29.072Z,4.60
2018-04-24T04:04:55.773Z,8.47
2018-04-24T04:07:22.500Z,7.67
2018-04-24T04:09:49.168Z,6.90
2018-04-24T04:12:15.841Z,7.57
2018-04-24T04:14:42.576Z,9.37
2018-04-24T04:17:15.136Z,12.00
2018-04-24T04:19:47.819Z,6.03
2018-04-24T04:22:20.284Z,8.80
2018-04-24T04:24:46.977Z,6.23
2018-04-24T04:27:13.653Z,4.20
2018-04-24T04:29:40.436Z,6.80
2018-04-24T04:32:07.099Z,4.77
2018-04-24T04:34:33.784Z,7.07
2018-04-24T04:37:00.477Z,9.40
2018-04-24T04:39:27.332Z,5.70
2018-04-24T04:41:54.024Z,8.80
2018-04-24T04:44:20.708Z,7.13
2018-04-24T04:46:47.405Z,5.20
2018-04-24T04:49:14.084Z,6.53
2018-04-24T04:51:40.888Z,9.83
2018-04-24T04:54:07.634Z,6.30
2018-04-24T04:56:34.384Z,7.80
2018-04-24T04:59:01.258Z,14.60
2018-04-24T05:01:27.958Z,9.10
2018-04-24T05:03:54.657Z,8.17
2018-04-24T05:06:21.491Z,10.00
2018-04-24T05:08:48.198Z,9.70
2018-04-24T05:11:14.883Z,10.60
2018-04-24T05:13:41.585Z,6.20
2018-04-24T05:16:08.278Z,4.63
2018-04-24T05:18:35.013Z,12.47
2018-04-24T05:21:01.699Z,8.37
2018-04-24T05:23:28.423Z,8.63
2018-04-24T05:25:55.109Z,6.73
2018-04-24T05:28:21.807Z,6.87
2018-04-24T05:30:48.476Z,4.30
2018-04-24T05:33:15.173Z,5.77
2018-04-24T05:35:41.924Z,5.23
2018-04-24T05:38:08.572Z,5.60
2018-04-24T05:40:35.251Z,7.90
2018-04-24T05:43:01.999Z,5.53
2018-04-24T05:45:28.824Z,5.70
2018-04-24T05:47:55.508Z,10.07
2018-04-24T05:50:22.477Z,5.27
2018-04-24T05:52:49.155Z,5.40
2018-04-24T05:55:15.861Z,5.33
2018-04-24T05:57:42.645Z,6.70
2018-04-24T06:00:09.383Z,8.10
2018-04-24T06:02:36.074Z,4.50
2018-04-24T06:05:02.808Z,6.90
2018-04-24T06:07:29.500Z,6.73
2018-04-24T06:09:56.197Z,4.63
2018-04-24T06:12:24.477Z,5.67
2018-04-24T06:14:51.167Z,6.17
2018-04-24T06:17:17.862Z,7.13
2018-04-24T06:19:44.601Z,7.10
2018-04-24T06:22:11.319Z,4.93
2018-04-24T06:24:37.994Z,5.57
2018-04-24T06:27:04.777Z,6.53
2018-04-24T06:29:31.514Z,6.97
2018-04-24T06:31:58.251Z,5.10
2018-04-24T06:34:25.439Z,9.50
2018-04-24T06:36:52.110Z,6.93
2018-04-24T06:39:18.817Z,4.70
2018-04-24T06:41:45.488Z,8.80
2018-04-24T06:44:12.197Z,5.30
2018-04-24T06:46:38.964Z,10.13
2018-04-24T06:49:05.641Z,4.30
2018-04-24T06:51:32.447Z,6.83
2018-04-24T06:53:59.141Z,7.40
2018-04-24T06:56:25.840Z,4.30
2018-04-24T06:58:52.517Z,4.73
2018-04-24T07:01:19.343Z,6.97
2018-04-24T07:03:46.080Z,5.20
2018-04-24T07:06:12.761Z,4.67
2018-04-24T07:08:39.447Z,4.40
2018-04-24T07:11:06.121Z,8.00
2018-04-24T07:13:32.843Z,7.13
2018-04-24T07:15:59.525Z,7.10
2018-04-24T07:18:26.215Z,6.50
2018-04-24T07:20:52.898Z,7.50
2018-04-24T07:23:19.631Z,6.13
2018-04-24T07:25:46.304Z,6.47
2018-04-24T07:28:12.971Z,6.17
2018-04-24T07:30:39.679Z,10.73
2018-04-24T07:33:06.368Z,7.07
2018-04-24T07:35:33.048Z,6.77
2018-04-24T07:37:59.958Z,5.30
2018-04-24T07:40:26.648Z,5.70
2018-04-24T07:42:53.368Z,8.63
2018-04-24T07:45:20.052Z,6.90
2018-04-24T07:47:46.747Z,7.40
2018-04-24T07:50:13.437Z,8.23
2018-04-24T07:52:40.131Z,4.57
2018-04-24T07:55:06.804Z,6.00
2018-04-24T07:57:33.507Z,6.73
2018-04-24T08:00:00.236Z,6.30
2018-04-24T08:02:26.932Z,8.97
2018-04-24T08:04:53.675Z,6.87
2018-04-24T08:07:20.376Z,6.20
2018-04-24T08:09:47.121Z,11.87
2018-04-24T08:12:13.823Z,10.30
2018-04-24T08:14:40.508Z,9.03
2018-04-24T08:17:07.204Z,7.13
2018-04-24T08:19:34.027Z,8.70
2018-04-24T08:22:00.699Z,5.60
2018-04-24T08:24:27.483Z,6.57
2018-04-24T08:26:54.147Z,9.63
2018-04-24T08:29:20.859Z,6.30
2018-04-24T08:31:47.660Z,7.07
2018-04-24T08:34:14.376Z,6.40
2018-04-24T08:36:41.071Z,15.33
2018-04-24T08:39:07.779Z,8.67
2018-04-24T08:41:34.456Z,9.50
2018-04-24T08:44:01.202Z,7.70
2018-04-24T08:46:27.891Z,6.17
2018-04-24T08:48:54.572Z,11.33
2018-04-24T08:51:21.318Z,7.70
2018-04-24T08:53:48.012Z,8.70
2018-04-24T08:56:14.756Z,9.67
2018-04-24T08:58:41.435Z,7.63
2018-04-24T09:01:08.151Z,12.60
2018-04-24T09:03:34.853Z,9.77
2018-04-24T09:06:01.673Z,8.53
2018-04-24T09:08:28.424Z,12.43
2018-04-24T09:10:55.077Z,10.33
2018-04-24T09:13:21.745Z,9.93
2018-04-24T09:15:48.476Z,8.10
2018-04-24T09:18:15.168Z,14.57
2018-04-24T09:20:41.948Z,12.70
2018-04-24T09:23:08.638Z,8.27
2018-04-24T09:25:35.306Z,12.27
2018-04-24T09:28:02.080Z,12.03
2018-04-24T09:30:28.851Z,11.37
2018-04-24T09:32:55.543Z,8.27
2018-04-24T09:35:28.075Z,9.73
2018-04-24T09:37:54.914Z,13.47
2018-04-24T09:40:21.608Z,12.67
2018-04-24T09:42:48.432Z,9.13
2018-04-24T09:45:15.157Z,9.60
2018-04-24T09:47:41.840Z,9.13
2018-04-24T09:50:08.511Z,11.00
2018-04-24T09:52:35.227Z,9.33
2018-04-24T09:55:01.920Z,9.63
2018-04-24T09:57:28.628Z,8.60
2018-04-24T09:59:55.344Z,7.77
2018-04-24T10:02:22.022Z,9.77
2018-04-24T10:04:48.809Z,11.10
2018-04-24T10:07:15.508Z,10.77
2018-04-24T10:09:42.245Z,10.33
2018-04-24T10:12:08.916Z,8.03
2018-04-24T10:14:35.600Z,8.90
2018-04-24T10:17:02.323Z,11.73
2018-04-24T10:19:29.016Z,9.17
2018-04-24T10:21:55.691Z,9.87
2018-04-24T10:24:22.408Z,13.50
2018-04-24T10:26:49.267Z,11.37
2018-04-24T10:29:15.947Z,9.20
2018-04-24T10:31:42.661Z,8.03
2018-04-24T10:34:09.359Z,10.40
2018-04-24T10:36:36.136Z,9.57
2018-04-24T10:39:02.799Z,14.83
2018-04-24T10:41:29.496Z,10.97
2018-04-24T10:43:56.275Z,12.73
2018-04-24T10:46:22.888Z,9.97
2018-04-24T10:48:49.577Z,10.53
2018-04-24T10:51:16.363Z,10.20
2018-04-24T10:53:43.004Z,9.83
2018-04-24T10:56:09.677Z,9.47
2018-04-24T10:58:36.599Z,10.80
2018-04-24T11:01:03.279Z,9.40
2018-04-24T11:03:30.055Z,10.10
2018-04-24T11:05:56.750Z,10.20
2018-04-24T11:08:23.459Z,9.20
2018-04-24T11:10:50.127Z,8.93
2018-04-24T11:13:16.819Z,8.70
2018-04-24T11:15:43.539Z,10.30
2018-04-24T11:18:10.219Z,8.47
2018-04-24T11:20:36.915Z,9.10
2018-04-24T11:23:03.681Z,8.47
2018-04-24T11:25:30.385Z,10.30
2018-04-24T11:27:57.065Z,12.60
2018-04-24T11:30:23.876Z,9.63
2018-04-24T11:32:50.468Z,10.20
2018-04-24T11:35:17.161Z,11.03
2018-04-24T11:37:43.855Z,9.20
2018-04-24T11:40:10.539Z,10.80
2018-04-24T11:42:37.343Z,12.83
2018-04-24T11:45:04.230Z,11.57
2018-04-24T11:47:30.877Z,13.60
2018-04-24T11:49:57.544Z,10.20
2018-04-24T11:52:24.264Z,9.50
2018-04-24T11:54:50.965Z,10.90
2018-04-24T11:57:17.672Z,10.90
2018-04-24T11:59:44.379Z,19.10
2018-04-24T12:02:11.063Z,11.13
2018-04-24T12:04:37.764Z,9.57
2018-04-24T12:07:04.448Z,9.63
2018-04-24T12:09:31.168Z,10.37
2018-04-24T12:11:58.007Z,9.63
2018-04-24T12:14:24.714Z,10.53
2018-04-24T12:16:51.384Z,9.77
2018-04-24T12:19:18.108Z,10.23
2018-04-24T12:21:44.781Z,9.60
2018-04-24T12:24:11.475Z,13.80
2018-04-24T12:26:38.192Z,11.60
2018-04-24T12:29:04.913Z,10.90
2018-04-24T12:31:31.709Z,10.00
2018-04-24T12:33:58.403Z,9.77
2018-04-24T12:36:25.108Z,9.50
2018-04-24T12:38:51.877Z,10.87
2018-04-24T12:41:18.539Z,11.93
2018-04-24T12:43:45.275Z,10.43
2018-04-24T12:46:12.010Z,11.60
2018-04-24T12:48:38.744Z,12.27
2018-04-24T12:51:05.629Z,12.70
2018-04-24T12:53:32.321Z,14.27
2018-04-24T12:55:59.008Z,12.13
2018-04-24T12:58:25.728Z,12.47
2018-04-24T13:00:52.445Z,12.77
2018-04-24T13:03:19.196Z,13.60
2018-04-24T13:05:45.916Z,13.23
2018-04-24T13:08:12.704Z,12.03
2018-04-24T13:10:39.553Z,11.70
2018-04-24T13:13:06.231Z,13.07
2018-04-24T13:15:32.943Z,11.73
2018-04-24T13:17:59.633Z,11.30
2018-04-24T13:20:26.355Z,12.37
2018-04-24T13:22:53.146Z,12.57
2018-04-24T13:25:19.847Z,11.97
2018-04-24T13:27:46.564Z,12.13
2018-04-24T13:30:13.264Z,11.57
2018-04-24T13:32:39.983Z,13.60
2018-04-24T13:35:06.690Z,13.73
2018-04-24T13:37:33.403Z,13.10
2018-04-24T13:40:00.097Z,14.53
2018-04-24T13:42:26.832Z,12.70
2018-04-24T13:44:53.518Z,13.70
2018-04-24T13:47:20.288Z,14.13
2018-04-24T13:49:46.985Z,12.63
2018-04-24T13:52:13.674Z,14.73
2018-04-24T13:54:40.384Z,11.97
2018-04-24T13:57:07.147Z,13.77
2018-04-24T13:59:33.864Z,13.03
2018-04-24T14:02:00.573Z,12.03
2018-04-24T14:04:27.280Z,13.80
2018-04-24T14:06:53.968Z,14.30
2018-04-24T14:09:20.697Z,12.10
2018-04-24T14:11:47.396Z,13.10
2018-04-24T14:14:14.089Z,11.70
2018-04-24T14:16:40.795Z,12.70
2018-04-24T14:19:07.612Z,13.67
2018-04-24T14:21:34.316Z,13.77
2018-04-24T14:24:01.036Z,12.83
2018-04-24T14:26:27.782Z,11.60
2018-04-24T14:28:54.527Z,13.53
2018-04-24T14:31:21.232Z,13.47
2018-04-24T14:33:47.918Z,13.37
2018-04-24T14:36:14.605Z,14.53
2018-04-24T14:38:41.556Z,12.60
2018-04-24T14:41:08.255Z,12.47
2018-04-24T14:43:34.931Z,11.87
2018-04-24T14:46:01.639Z,12.37
2018-04-24T14:48:28.361Z,15.80
2018-04-24T14:50:55.052Z,14.07
2018-04-24T14:53:21.771Z,13.33
2018-04-24T14:55:48.507Z,14.13
2018-04-24T14:58:15.285Z,13.77
2018-04-24T15:00:41.943Z,15.07
2018-04-24T15:03:08.628Z,15.33
2018-04-24T15:05:35.344Z,14.00
2018-04-24T15:08:02.057Z,14.37
2018-04-24T15:10:28.772Z,14.77
2018-04-24T15:12:55.468Z,16.67
2018-04-24T15:15:22.176Z,14.37
2018-04-24T15:17:48.886Z,13.40
2018-04-24T15:20:15.709Z,14.23
2018-04-24T15:22:42.339Z,14.67
2018-04-24T15:25:09.079Z,12.30
2018-04-24T15:27:35.812Z,15.50
2018-04-24T15:30:02.517Z,14.43
2018-04-24T15:32:29.232Z,13.13
2018-04-24T15:34:55.991Z,14.27
2018-04-24T15:37:22.706Z,13.70
2018-04-24T15:39:49.413Z,12.97
2018-04-24T15:42:16.120Z,11.80
2018-04-24T15:44:42.878Z,11.87
2018-04-24T15:47:09.603Z,12.00
2018-04-24T15:49:36.286Z,13.83
2018-04-24T15:52:03.052Z,13.53
2018-04-24T15:54:29.775Z,12.63
2018-04-24T15:56:56.487Z,16.30
2018-04-24T15:59:23.220Z,13.30
2018-04-24T16:01:49.918Z,11.80
2018-04-24T16:04:16.642Z,10.50
2018-04-24T16:06:43.348Z,10.20
2018-04-24T16:09:10.047Z,11.47
2018-04-24T16:11:36.742Z,10.90
2018-04-24T16:14:03.440Z,11.37
2018-04-24T16:16:30.170Z,10.93
2018-04-24T16:18:56.850Z,11.00
2018-04-24T16:21:23.548Z,10.07
2018-04-24T16:23:50.372Z,10.40
2018-04-24T16:26:17.092Z,12.00
2018-04-24T16:28:43.767Z,11.50
2018-04-24T16:31:10.571Z,9.03
2018-04-24T16:33:37.292Z,10.43
2018-04-24T16:36:04.201Z,10.37
2018-04-24T16:38:31.032Z,12.63
2018-04-24T16:40:57.752Z,10.97
2018-04-24T16:43:24.484Z,11.30
2018-04-24T16:45:51.243Z,12.30
2018-04-24T16:48:17.976Z,11.20
2018-04-24T16:50:44.680Z,10.53
2018-04-24T16:53:11.396Z,10.83
2018-04-24T16:55:38.099Z,18.27
2018-04-24T16:58:04.983Z,11.70
2018-04-24T17:00:31.788Z,11.83
2018-04-24T17:02:58.413Z,13.20
2018-04-24T17:05:25.135Z,9.93
2018-04-24T17:07:51.851Z,13.30
2018-04-24T17:10:18.588Z,11.30
2018-04-24T17:12:45.286Z,11.80
2018-04-24T17:15:12.006Z,11.00
2018-04-24T17:17:38.691Z,12.70
2018-04-24T17:20:05.520Z,14.30
2018-04-24T17:22:32.263Z,12.23
2018-04-24T17:24:58.964Z,10.13
2018-04-24T17:27:25.693Z,10.40
2018-04-24T17:29:52.406Z,12.33
2018-04-24T17:32:19.101Z,10.67
2018-04-24T17:34:45.798Z,12.83
2018-04-24T17:37:12.628Z,11.17
2018-04-24T17:39:39.239Z,10.40
2018-04-24T17:42:05.963Z,11.47
2018-04-24T17:44:32.691Z,11.90
2018-04-24T17:46:59.444Z,10.97
2018-04-24T17:49:26.152Z,10.37
2018-04-24T17:51:52.859Z,13.80
2018-04-24T17:54:19.584Z,12.03
2018-04-24T17:56:46.294Z,11.27
2018-04-24T17:59:13.035Z,12.03
2018-04-24T18:01:39.773Z,11.63
2018-04-24T18:04:06.524Z,11.53
2018-04-24T18:06:33.260Z,10.73
2018-04-24T18:08:59.981Z,12.03
2018-04-24T18:11:26.794Z,12.20
2018-04-24T18:13:53.457Z,9.70
2018-04-24T18:16:20.172Z,11.40
2018-04-24T18:18:46.866Z,14.70
2018-04-24T18:21:13.606Z,11.80
2018-04-24T18:23:40.312Z,11.97
2018-04-24T18:26:07.042Z,11.30
2018-04-24T18:28:33.825Z,11.07
2018-04-24T18:31:00.510Z,12.77
2018-04-24T18:33:27.382Z,12.67
2018-04-24T18:35:54.090Z,12.57
2018-04-24T18:38:20.786Z,13.93
2018-04-24T18:40:47.521Z,11.10
2018-04-24T18:43:14.206Z,12.90
2018-04-24T18:45:40.938Z,12.07
2018-04-24T18:48:07.672Z,12.30
2018-04-24T18:50:34.382Z,13.93
2018-04-24T18:53:01.136Z,13.73
2018-04-24T18:55:27.814Z,12.93
2018-04-24T18:57:54.557Z,11.43
2018-04-24T19:00:21.325Z,12.40
2018-04-24T19:02:48.014Z,13.13
2018-04-24T19:05:14.760Z,12.60
2018-04-24T19:07:41.561Z,11.37
2018-04-24T19:10:08.286Z,11.60
2018-04-24T19:12:35.006Z,12.43
2018-04-24T19:15:01.767Z,12.97
2018-04-24T19:17:28.467Z,14.53
2018-04-24T19:19:55.214Z,14.17
2018-04-24T19:22:21.934Z,14.33
2018-04-24T19:24:54.462Z,17.33
2018-04-24T19:27:21.208Z,14.67
2018-04-24T19:29:48.045Z,15.43
2018-04-24T19:32:20.553Z,13.43
2018-04-24T19:34:47.236Z,13.70
2018-04-24T19:37:13.975Z,13.13
2018-04-24T19:39:46.459Z,13.13
2018-04-24T19:42:13.181Z,13.57
2018-04-24T19:44:39.902Z,13.07
2018-04-24T19:47:06.687Z,13.13
2018-04-24T19:49:39.029Z,19.90
2018-04-24T19:52:05.759Z,12.00
2018-04-24T19:54:32.628Z,11.50
2018-04-24T19:56:59.388Z,10.80
2018-04-24T19:59:26.181Z,10.27
2018-04-24T20:01:52.890Z,13.13
2018-04-24T20:04:19.622Z,10.93
2018-04-24T20:06:46.346Z,10.63
2018-04-24T20:09:13.137Z,9.50
2018-04-24T20:11:39.807Z,11.07
2018-04-24T20:14:06.674Z,10.27
2018-04-24T20:16:33.361Z,10.17
2018-04-24T20:19:00.079Z,10.17
2018-04-24T20:21:26.776Z,10.70
2018-04-24T20:23:53.540Z,10.20
2018-04-24T20:26:20.225Z,12.50
2018-04-24T20:28:46.940Z,11.30
2018-04-24T20:31:13.627Z,10.10
2018-04-24T20:33:40.350Z,10.77
2018-04-24T20:36:07.088Z,10.67
2018-04-24T20:38:33.855Z,10.00
2018-04-24T20:41:00.496Z,12.07
2018-04-24T20:43:27.202Z,8.87
2018-04-24T20:45:53.913Z,10.00
2018-04-24T20:48:20.599Z,12.27
2018-04-24T20:50:47.335Z,11.30
2018-04-24T20:53:14.162Z,10.70
2018-04-24T20:55:40.848Z,10.27
2018-04-24T20:58:07.536Z,13.60
2018-04-24T21:00:34.285Z,9.97
2018-04-24T21:03:00.996Z,12.57
2018-04-24T21:05:27.745Z,10.40
2018-04-24T21:07:54.530Z,11.13
2018-04-24T21:10:21.237Z,11.53
2018-04-24T21:12:47.960Z,10.80
2018-04-24T21:15:14.715Z,12.70
2018-04-24T21:17:41.444Z,10.87
2018-04-24T21:20:08.140Z,11.23
2018-04-24T21:22:34.864Z,10.57
2018-04-24T21:25:01.570Z,12.10
2018-04-24T21:27:28.271Z,16.13
2018-04-24T21:29:55.079Z,12.07
2018-04-24T21:32:21.800Z,11.73
2018-04-24T21:34:48.708Z,12.17
2018-04-24T21:37:15.411Z,12.77
2018-04-24T21:39:42.135Z,11.93
2018-04-24T21:42:08.806Z,11.10
2018-04-24T21:44:35.565Z,12.10
2018-04-24T21:47:02.257Z,10.67
2018-04-24T21:49:28.949Z,11.17
2018-04-24T21:51:55.776Z,12.87
2018-04-24T21:54:22.535Z,12.50
2018-04-24T21:56:49.249Z,10.27
2018-04-24T21:59:15.941Z,12.90
2018-04-24T22:01:42.671Z,9.73
2018-04-24T22:04:09.326Z,13.83
2018-04-24T22:06:36.045Z,10.43
2018-04-24T22:09:02.761Z,12.83
2018-04-24T22:11:29.472Z,10.33
2018-04-24T22:13:56.206Z,9.13
2018-04-24T22:16:22.945Z,10.03
2018-04-24T22:18:49.651Z,11.30
2018-04-24T22:21:16.333Z,10.10
2018-04-24T22:23:43.038Z,15.30
2018-04-24T22:26:09.733Z,13.40
2018-04-24T22:28:36.445Z,11.60
2018-04-24T22:31:03.165Z,11.73
2018-04-24T22:33:29.852Z,12.27
2018-04-24T22:35:56.551Z,11.13
2018-04-24T22:38:23.265Z,11.60
2018-04-24T22:40:50.175Z,12.57
2018-04-24T22:43:16.864Z,12.67
2018-04-24T22:45:43.656Z,13.33
2018-04-24T22:48:10.392Z,12.73
2018-04-24T22:50:37.081Z,13.93
2018-04-24T22:53:03.801Z,13.10
2018-04-24T22:55:30.488Z,12.50
2018-04-24T22:57:57.223Z,14.90
2018-04-24T23:00:23.921Z,13.93
2018-04-24T23:02:50.640Z,13.67
2018-04-24T23:05:17.340Z,14.43
2018-04-24T23:07:44.027Z,16.50
2018-04-24T23:10:10.485Z,14.23
2018-04-24T23:12:42.971Z,13.10
2018-04-24T23:15:15.509Z,14.43
2018-04-24T23:17:48.249Z,21.43
2018-04-24T23:20:15.565Z,13.87
2018-04-24T23:22:42.266Z,13.17
2018-04-24T23:25:08.959Z,16.00
2018-04-24T23:27:35.674Z,13.27
2018-04-24T23:30:02.357Z,14.60
2018-04-24T23:32:29.131Z,12.90
2018-04-24T23:34:55.833Z,11.63
2018-04-24T23:37:23.572Z,12.60
2018-04-24T23:39:50.287Z,12.23
2018-04-24T23:42:16.964Z,12.77
2018-04-24T23:44:43.673Z,11.77
2018-04-24T23:47:10.353Z,12.17
2018-04-24T23:49:37.075Z,11.30
2018-04-24T23:52:03.775Z,10.80
2018-04-24T23:54:30.468Z,10.80
2018-04-24T23:56:57.157Z,12.40
2018-04-24T23:59:23.840Z,14.33
